createdAt,value
2022-11-06T00:00:18.132Z,17.90
2022-11-06T00:02:21.270Z,18.33
2022-11-06T00:04:24.388Z,17.50
2022-11-06T00:06:56.561Z,20.83
2022-11-06T00:09:00.701Z,21.17
2022-11-06T00:11:09.724Z,19.57
2022-11-06T00:13:12.618Z,19.77
2022-11-06T00:15:15.558Z,21.37
2022-11-06T00:17:18.257Z,20.40
2022-11-06T00:19:20.924Z,21.60
2022-11-06T00:21:25.949Z,20.60
2022-11-06T00:23:28.766Z,23.87
2022-11-06T00:25:32.306Z,23.57
2022-11-06T00:27:38.999Z,21.23
2022-11-06T00:29:42.553Z,21.57
2022-11-06T00:31:45.309Z,27.13
2022-11-06T00:33:48.497Z,23.47
2022-11-06T00:35:51.554Z,24.80
2022-11-06T00:37:54.629Z,20.23
2022-11-06T00:39:59.322Z,23.90
2022-11-06T00:42:02.046Z,24.97
2022-11-06T00:44:06.246Z,26.40
2022-11-06T00:46:10.768Z,23.83
2022-11-06T00:48:13.919Z,26.00
2022-11-06T00:50:17.558Z,27.70
2022-11-06T00:52:21.032Z,23.03
2022-11-06T00:54:24.510Z,26.07
2022-11-06T00:56:28.000Z,25.20
2022-11-06T00:58:30.718Z,27.70
2022-11-06T01:00:35.110Z,31.27
2022-11-06T01:02:38.406Z,24.30
2022-11-06T01:04:41.343Z,26.40
2022-11-06T01:06:46.466Z,26.90
2022-11-06T01:08:50.243Z,25.73
2022-11-06T01:10:53.058Z,26.90
2022-11-06T01:12:55.740Z,27.30
2022-11-06T01:14:58.483Z,27.57
2022-11-06T01:17:02.507Z,34.30
2022-11-06T01:19:05.252Z,24.60
2022-11-06T01:21:09.770Z,27.53
2022-11-06T01:23:12.987Z,29.60
2022-11-06T01:25:15.801Z,25.70
2022-11-06T01:27:26.963Z,28.40
2022-11-06T01:29:30.255Z,32.47
2022-11-06T01:31:34.362Z,28.53
2022-11-06T01:33:38.634Z,33.07
2022-11-06T01:35:45.553Z,27.73
2022-11-06T01:37:48.527Z,33.23
2022-11-06T01:39:51.484Z,27.30
2022-11-06T01:41:55.154Z,31.57
2022-11-06T01:43:59.856Z,29.17
2022-11-06T01:46:03.226Z,26.37
2022-11-06T01:48:07.348Z,26.90
2022-11-06T01:50:14.565Z,26.03
2022-11-06T01:52:21.602Z,25.70
2022-11-06T01:54:27.653Z,28.10
2022-11-06T01:56:30.590Z,29.53
2022-11-06T01:58:36.095Z,28.10
2022-11-06T02:00:39.090Z,27.83
2022-11-06T02:02:43.374Z,29.20
2022-11-06T02:04:49.062Z,29.30
2022-11-06T02:06:57.215Z,25.67
2022-11-06T02:09:00.636Z,28.17
2022-11-06T02:11:05.590Z,25.47
2022-11-06T02:13:25.379Z,24.67
2022-11-06T02:15:38.083Z,26.77
2022-11-06T02:18:01.534Z,27.63
2022-11-06T02:20:09.876Z,23.80
2022-11-06T02:22:29.708Z,22.13
2022-11-06T02:25:04.086Z,22.73
2022-11-06T02:27:13.514Z,23.70
2022-11-06T02:29:20.855Z,22.97
2022-11-06T02:31:29.490Z,23.40
2022-11-06T02:33:36.206Z,23.83
2022-11-06T02:35:44.545Z,25.40
2022-11-06T02:37:49.720Z,24.97
2022-11-06T02:39:53.272Z,21.10
2022-11-06T02:41:58.325Z,26.53
2022-11-06T02:44:03.960Z,23.30
2022-11-06T02:46:13.841Z,21.27
2022-11-06T02:48:20.963Z,24.73
2022-11-06T02:50:29.383Z,23.50
2022-11-06T02:52:38.066Z,23.33
2022-11-06T02:54:46.750Z,24.77
2022-11-06T02:56:53.564Z,24.40
2022-11-06T02:59:01.463Z,25.93
2022-11-06T03:01:10.450Z,24.13
2022-11-06T03:03:18.133Z,24.63
2022-11-06T03:05:24.667Z,21.60
2022-11-06T03:07:34.251Z,21.50
2022-11-06T03:09:37.326Z,23.70
2022-11-06T03:11:40.248Z,22.53
2022-11-06T03:13:53.212Z,23.40
2022-11-06T03:16:07.766Z,23.73
2022-11-06T03:18:17.295Z,26.83
2022-11-06T03:20:27.193Z,25.80
2022-11-06T03:22:35.190Z,26.67
2022-11-06T03:24:47.247Z,29.40
2022-11-06T03:26:53.982Z,26.73
2022-11-06T03:29:01.433Z,31.13
2022-11-06T03:31:09.960Z,31.13
2022-11-06T03:33:17.350Z,32.77
2022-11-06T03:35:25.190Z,28.83
2022-11-06T03:37:37.979Z,26.50
2022-11-06T03:39:45.337Z,29.20
2022-11-06T03:41:52.909Z,31.40
2022-11-06T03:43:58.678Z,28.80
2022-11-06T03:46:06.853Z,32.60
2022-11-06T03:48:12.347Z,29.30
2022-11-06T03:50:20.641Z,32.60
2022-11-06T03:52:28.088Z,33.77
2022-11-06T03:54:35.499Z,34.03
2022-11-06T03:56:42.166Z,29.40
2022-11-06T03:58:48.865Z,30.97
2022-11-06T04:00:54.048Z,30.67
2022-11-06T04:03:05.529Z,31.87
2022-11-06T04:05:13.166Z,40.20
2022-11-06T04:07:18.331Z,33.93
2022-11-06T04:09:43.104Z,39.33
2022-11-06T04:12:05.753Z,37.90
2022-11-06T04:14:10.238Z,35.43
2022-11-06T04:16:14.591Z,34.80
2022-11-06T04:18:20.665Z,33.33
2022-11-06T04:20:42.608Z,35.10
2022-11-06T04:22:54.461Z,39.10
2022-11-06T04:25:23.647Z,34.70
2022-11-06T04:27:43.046Z,36.53
2022-11-06T04:30:02.927Z,36.30
2022-11-06T04:32:12.420Z,37.03
2022-11-06T04:34:23.287Z,34.33
2022-11-06T04:36:38.560Z,39.90
2022-11-06T04:38:48.116Z,36.90
2022-11-06T04:40:56.307Z,31.67
2022-11-06T04:43:03.783Z,29.93
2022-11-06T04:45:12.537Z,29.17
2022-11-06T04:47:20.028Z,27.77
2022-11-06T04:49:27.446Z,34.03
2022-11-06T04:51:36.084Z,30.93
2022-11-06T04:53:40.498Z,30.37
2022-11-06T04:55:48.126Z,29.27
2022-11-06T04:57:50.837Z,29.83
2022-11-06T04:59:57.581Z,34.40
2022-11-06T05:02:00.361Z,29.70
2022-11-06T05:04:03.296Z,33.90
2022-11-06T05:06:07.941Z,30.17
2022-11-06T05:08:15.000Z,30.93
2022-11-06T05:10:18.164Z,31.97
2022-11-06T05:12:20.905Z,31.63
2022-11-06T05:14:23.965Z,29.40
2022-11-06T05:16:26.845Z,32.83
2022-11-06T05:18:30.352Z,27.90
2022-11-06T05:20:35.033Z,30.30
2022-11-06T05:23:00.540Z,33.80
2022-11-06T05:25:03.321Z,31.53
2022-11-06T05:27:06.029Z,31.67
2022-11-06T05:29:08.866Z,33.50
2022-11-06T05:31:11.832Z,30.40
2022-11-06T05:33:14.868Z,33.17
2022-11-06T05:35:17.801Z,34.47
2022-11-06T05:37:20.482Z,31.13
2022-11-06T05:39:24.801Z,38.03
2022-11-06T05:41:27.717Z,36.33
2022-11-06T05:43:30.437Z,41.67
2022-11-06T05:45:33.127Z,35.13
2022-11-06T05:47:36.204Z,36.83
2022-11-06T05:49:38.927Z,39.50
2022-11-06T05:51:41.632Z,40.23
2022-11-06T05:53:44.360Z,38.80
2022-11-06T05:55:48.476Z,36.60
2022-11-06T05:57:51.200Z,34.63
2022-11-06T05:59:54.153Z,35.10
2022-11-06T06:01:58.443Z,33.07
2022-11-06T06:04:01.323Z,30.47
2022-11-06T06:06:04.127Z,33.10
2022-11-06T06:08:07.238Z,33.20
2022-11-06T06:10:11.483Z,34.70
2022-11-06T06:12:16.170Z,37.87
2022-11-06T06:14:18.947Z,35.33
2022-11-06T06:16:22.111Z,36.10
2022-11-06T06:18:25.041Z,36.47
2022-11-06T06:20:28.563Z,38.17
2022-11-06T06:22:31.418Z,37.30
2022-11-06T06:24:35.306Z,34.70
2022-11-06T06:26:38.255Z,30.20
2022-11-06T06:28:42.485Z,29.73
2022-11-06T06:30:47.159Z,25.63
2022-11-06T06:32:50.192Z,29.27
2022-11-06T06:34:53.017Z,27.53
2022-11-06T06:36:55.823Z,28.10
2022-11-06T06:38:58.515Z,28.00
2022-11-06T06:41:05.206Z,26.20
2022-11-06T06:43:07.978Z,23.50
2022-11-06T06:45:12.192Z,26.30
2022-11-06T06:47:16.728Z,30.63
2022-11-06T06:49:19.478Z,28.00
2022-11-06T06:51:24.059Z,28.93
2022-11-06T06:53:27.177Z,25.83
2022-11-06T06:55:30.216Z,28.57
2022-11-06T06:57:33.042Z,27.57
2022-11-06T06:59:35.932Z,29.57
2022-11-06T07:01:40.093Z,25.83
2022-11-06T07:03:42.958Z,27.13
2022-11-06T07:05:46.674Z,28.93
2022-11-06T07:07:49.377Z,27.30
2022-11-06T07:09:52.257Z,23.27
2022-11-06T07:11:55.110Z,27.47
2022-11-06T07:13:58.064Z,24.53
2022-11-06T07:16:03.186Z,25.80
2022-11-06T07:18:08.521Z,22.43
2022-11-06T07:20:12.132Z,24.67
2022-11-06T07:22:23.356Z,24.50
2022-11-06T07:24:30.770Z,21.47
2022-11-06T07:26:33.657Z,23.60
2022-11-06T07:28:37.009Z,17.90
2022-11-06T07:30:40.145Z,19.60
2022-11-06T07:32:43.438Z,16.40
2022-11-06T07:34:47.561Z,15.73
2022-11-06T07:36:50.319Z,16.50
2022-11-06T07:38:53.021Z,17.50
2022-11-06T07:40:55.683Z,17.67
2022-11-06T07:43:04.150Z,20.63
2022-11-06T07:45:08.211Z,20.97
2022-11-06T07:47:11.062Z,24.23
2022-11-06T07:49:13.790Z,20.93
2022-11-06T07:51:17.913Z,19.90
2022-11-06T07:53:20.607Z,22.07
2022-11-06T07:55:24.740Z,25.70
2022-11-06T07:57:27.887Z,22.70
2022-11-06T07:59:30.739Z,21.40
2022-11-06T08:01:33.518Z,23.70
2022-11-06T08:03:37.389Z,25.73
2022-11-06T08:05:40.049Z,23.53
2022-11-06T08:07:44.298Z,22.47
2022-11-06T08:09:47.197Z,22.70
2022-11-06T08:11:52.254Z,19.83
2022-11-06T08:13:55.010Z,20.00
2022-11-06T08:15:57.749Z,21.70
2022-11-06T08:18:00.874Z,25.97
2022-11-06T08:20:03.611Z,25.40
2022-11-06T08:22:08.917Z,21.17
2022-11-06T08:24:16.443Z,20.67
2022-11-06T08:26:24.750Z,25.57
2022-11-06T08:28:28.390Z,22.60
2022-11-06T08:30:32.350Z,23.90
2022-11-06T08:32:35.270Z,25.07
2022-11-06T08:34:39.097Z,21.87
2022-11-06T08:36:49.501Z,22.63
2022-11-06T08:38:53.850Z,22.70
2022-11-06T08:40:57.877Z,22.57
2022-11-06T08:43:01.863Z,20.60
2022-11-06T08:45:05.506Z,24.73
2022-11-06T08:47:08.700Z,23.03
2022-11-06T08:49:11.730Z,26.33
2022-11-06T08:51:14.478Z,24.83
2022-11-06T08:53:18.423Z,23.83
2022-11-06T08:55:21.328Z,25.47
2022-11-06T08:57:25.357Z,24.03
2022-11-06T08:59:29.628Z,22.67
2022-11-06T09:01:32.496Z,26.23
2022-11-06T09:03:35.325Z,26.60
2022-11-06T09:05:40.692Z,23.00
2022-11-06T09:07:43.406Z,22.50
2022-11-06T09:09:46.099Z,21.93
2022-11-06T09:11:48.842Z,20.40
2022-11-06T09:13:53.112Z,21.60
2022-11-06T09:15:55.875Z,21.03
2022-11-06T09:17:58.840Z,21.63
2022-11-06T09:20:01.513Z,23.03
2022-11-06T09:22:04.308Z,22.47
2022-11-06T09:24:07.526Z,22.83
2022-11-06T09:26:10.262Z,20.57
2022-11-06T09:28:13.114Z,24.47
2022-11-06T09:30:18.825Z,22.33
2022-11-06T09:32:22.289Z,19.47
2022-11-06T09:34:25.008Z,22.47
2022-11-06T09:36:27.786Z,20.20
2022-11-06T09:38:30.653Z,20.20
2022-11-06T09:40:36.317Z,20.43
2022-11-06T09:42:49.726Z,19.00
2022-11-06T09:45:03.177Z,19.13
2022-11-06T09:47:14.258Z,18.57
2022-11-06T09:49:23.381Z,20.60
2022-11-06T09:51:34.017Z,18.50
2022-11-06T09:53:41.025Z,19.40
2022-11-06T09:55:45.688Z,17.73
2022-11-06T09:57:52.865Z,16.63
2022-11-06T09:59:57.049Z,14.93
2022-11-06T10:02:01.408Z,16.47
2022-11-06T10:04:06.058Z,19.20
2022-11-06T10:06:08.828Z,17.17
2022-11-06T10:08:17.405Z,18.77
2022-11-06T10:10:24.414Z,15.87
2022-11-06T10:12:40.037Z,17.03
2022-11-06T10:14:54.459Z,14.53
2022-11-06T10:17:07.327Z,15.80
2022-11-06T10:19:20.685Z,13.47
2022-11-06T10:21:25.818Z,12.63
2022-11-06T10:23:40.110Z,17.23
2022-11-06T10:25:54.343Z,10.00
2022-11-06T10:28:02.925Z,12.17
2022-11-06T10:30:11.459Z,11.20
2022-11-06T10:32:38.958Z,9.60
2022-11-06T10:34:47.854Z,10.70
2022-11-06T10:36:53.736Z,11.10
2022-11-06T10:38:58.554Z,10.03
2022-11-06T10:41:02.428Z,11.57
2022-11-06T10:43:15.396Z,10.63
2022-11-06T10:45:19.469Z,10.87
2022-11-06T10:47:23.873Z,11.30
2022-11-06T10:49:36.144Z,8.70
2022-11-06T10:51:58.332Z,11.10
2022-11-06T10:54:11.853Z,9.87
2022-11-06T10:56:28.537Z,11.10
2022-11-06T10:58:33.571Z,12.13
2022-11-06T11:00:36.908Z,9.47
2022-11-06T11:02:41.968Z,14.20
2022-11-06T11:04:44.687Z,11.73
2022-11-06T11:06:48.929Z,10.67
2022-11-06T11:08:53.054Z,9.07
2022-11-06T11:11:05.146Z,11.97
2022-11-06T11:13:21.530Z,10.73
2022-11-06T11:15:26.902Z,8.47
2022-11-06T11:17:29.645Z,8.87
2022-11-06T11:19:37.301Z,8.67
2022-11-06T11:21:40.006Z,11.43
2022-11-06T11:23:44.776Z,10.30
2022-11-06T11:25:49.679Z,9.20
2022-11-06T11:27:52.418Z,8.97
2022-11-06T11:29:55.279Z,9.47
2022-11-06T11:32:00.797Z,9.20
2022-11-06T11:34:05.749Z,8.10
2022-11-06T11:36:10.811Z,7.30
2022-11-06T11:38:16.724Z,8.53
2022-11-06T11:40:35.803Z,12.90
2022-11-06T11:42:38.606Z,6.87
2022-11-06T11:44:41.374Z,8.23
2022-11-06T11:46:49.365Z,6.97
2022-11-06T11:48:55.668Z,6.00
2022-11-06T11:50:58.646Z,8.20
2022-11-06T11:53:10.181Z,5.80
2022-11-06T11:55:17.286Z,6.07
2022-11-06T11:57:23.735Z,9.07
2022-11-06T11:59:30.348Z,6.30
2022-11-06T12:01:39.727Z,7.23
2022-11-06T12:03:45.814Z,5.80
2022-11-06T12:05:48.651Z,6.00
2022-11-06T12:07:54.989Z,6.00
2022-11-06T12:09:59.597Z,7.13
2022-11-06T12:12:03.128Z,7.47
2022-11-06T12:14:25.970Z,6.10
2022-11-06T12:16:29.841Z,6.07
2022-11-06T12:18:36.375Z,7.17
2022-11-06T12:20:45.746Z,7.03
2022-11-06T12:22:50.506Z,5.87
2022-11-06T12:24:55.996Z,5.63
2022-11-06T12:27:03.040Z,5.67
2022-11-06T12:29:12.358Z,5.37
2022-11-06T12:31:21.602Z,5.30
2022-11-06T12:34:04.007Z,6.37
2022-11-06T12:35:55.857Z,6.40
2022-11-06T12:38:06.738Z,6.63
2022-11-06T12:40:24.753Z,5.20
2022-11-06T12:42:33.117Z,5.00
2022-11-06T12:44:35.875Z,6.10
2022-11-06T12:46:48.389Z,5.10
2022-11-06T12:49:15.383Z,7.30
2022-11-06T12:51:25.613Z,5.20
2022-11-06T12:53:42.807Z,5.87
2022-11-06T12:55:55.666Z,5.43
2022-11-06T12:58:10.355Z,5.53
2022-11-06T13:00:18.745Z,6.40
2022-11-06T13:02:41.433Z,5.80
2022-11-06T13:04:53.682Z,5.73
2022-11-06T13:07:31.894Z,7.83
2022-11-06T13:09:40.182Z,5.50
2022-11-06T13:11:49.325Z,4.93
2022-11-06T13:14:03.388Z,6.30
2022-11-06T13:16:18.255Z,6.03
2022-11-06T13:18:29.148Z,4.70
2022-11-06T13:20:40.880Z,4.43
2022-11-06T13:22:50.803Z,6.50
2022-11-06T13:25:01.672Z,5.70
2022-11-06T13:27:09.868Z,4.87
2022-11-06T13:29:16.010Z,4.67
2022-11-06T13:31:22.222Z,5.80
2022-11-06T13:33:29.525Z,4.80
2022-11-06T13:35:35.353Z,6.17
2022-11-06T13:37:41.491Z,3.53
2022-11-06T13:39:49.106Z,7.50
2022-11-06T13:41:53.318Z,5.00
2022-11-06T13:44:00.555Z,4.20
2022-11-06T13:46:09.246Z,4.30
2022-11-06T13:48:27.361Z,4.30
2022-11-06T13:50:36.764Z,4.87
2022-11-06T13:52:47.189Z,4.37
2022-11-06T13:55:04.126Z,4.07
2022-11-06T13:57:36.183Z,4.93
2022-11-06T13:59:59.696Z,4.03
2022-11-06T14:02:16.936Z,4.10
2022-11-06T14:04:38.147Z,7.70
2022-11-06T14:06:43.349Z,4.73
2022-11-06T14:08:48.612Z,4.60
2022-11-06T14:10:56.453Z,5.30
2022-11-06T14:12:59.178Z,3.80
2022-11-06T14:15:24.058Z,4.10
2022-11-06T14:17:27.015Z,4.70
2022-11-06T14:19:30.469Z,4.33
2022-11-06T14:21:50.926Z,3.93
2022-11-06T14:23:54.714Z,5.83
2022-11-06T14:26:01.658Z,3.73
2022-11-06T14:28:06.815Z,5.60
2022-11-06T14:31:10.532Z,4.73
2022-11-06T14:33:01.018Z,4.67
2022-11-06T14:35:51.650Z,4.13
2022-11-06T14:38:17.336Z,4.43
2022-11-06T14:40:32.274Z,4.13
2022-11-06T14:42:37.734Z,4.20
2022-11-06T14:44:47.988Z,4.13
2022-11-06T14:46:52.263Z,4.40
2022-11-06T14:48:58.289Z,4.87
2022-11-06T14:51:04.999Z,4.07
2022-11-06T14:53:22.525Z,4.37
2022-11-06T14:55:31.771Z,5.07
2022-11-06T14:57:44.612Z,6.17
2022-11-06T14:59:48.967Z,4.47
2022-11-06T15:01:58.623Z,4.40
2022-11-06T15:04:06.235Z,4.83
2022-11-06T15:06:34.883Z,4.73
2022-11-06T15:09:02.917Z,4.27
2022-11-06T15:11:07.549Z,4.50
2022-11-06T15:13:12.642Z,4.10
2022-11-06T15:15:20.494Z,4.70
2022-11-06T15:17:26.186Z,4.70
2022-11-06T15:19:31.734Z,4.20
2022-11-06T15:21:43.417Z,4.60
2022-11-06T15:24:03.738Z,5.90
2022-11-06T15:26:19.849Z,6.13
2022-11-06T15:28:26.405Z,7.83
2022-11-06T15:30:30.111Z,6.77
2022-11-06T15:32:41.195Z,9.50
2022-11-06T15:34:46.890Z,5.00
2022-11-06T15:36:56.014Z,6.13
2022-11-06T15:38:58.724Z,6.77
2022-11-06T15:41:01.664Z,6.47
2022-11-06T15:43:15.648Z,4.37
2022-11-06T15:45:24.141Z,6.23
2022-11-06T15:47:28.892Z,5.20
2022-11-06T15:49:31.642Z,5.63
2022-11-06T15:51:34.335Z,5.07
2022-11-06T15:53:40.826Z,5.43
2022-11-06T15:55:48.637Z,4.60
2022-11-06T15:57:51.494Z,4.70
2022-11-06T16:00:10.146Z,5.40
2022-11-06T16:02:18.033Z,5.07
2022-11-06T16:04:24.895Z,5.27
2022-11-06T16:06:27.703Z,5.23
2022-11-06T16:08:32.061Z,4.40
2022-11-06T16:10:37.322Z,5.37
2022-11-06T16:12:40.055Z,5.13
2022-11-06T16:14:44.472Z,6.90
2022-11-06T16:16:50.464Z,5.80
2022-11-06T16:18:54.032Z,5.60
2022-11-06T16:21:01.307Z,6.83
2022-11-06T16:23:05.150Z,5.80
2022-11-06T16:25:08.817Z,6.43
2022-11-06T16:27:12.082Z,8.10
2022-11-06T16:29:20.968Z,6.00
2022-11-06T16:31:26.341Z,5.77
2022-11-06T16:33:30.434Z,7.43
2022-11-06T16:35:35.338Z,5.53
2022-11-06T16:37:39.690Z,6.70
2022-11-06T16:39:49.955Z,6.00
2022-11-06T16:42:03.254Z,6.00
2022-11-06T16:44:24.831Z,6.17
2022-11-06T16:47:27.305Z,6.27
2022-11-06T16:49:36.017Z,5.73
2022-11-06T16:51:38.898Z,5.23
2022-11-06T16:53:54.676Z,5.10
2022-11-06T16:56:00.311Z,5.90
2022-11-06T16:58:04.054Z,5.70
2022-11-06T17:00:09.760Z,6.10
2022-11-06T17:02:22.410Z,6.20
2022-11-06T17:04:30.033Z,7.30
2022-11-06T17:06:38.271Z,7.77
2022-11-06T17:08:42.391Z,7.03
2022-11-06T17:10:45.889Z,6.87
2022-11-06T17:12:48.698Z,9.40
2022-11-06T17:14:51.449Z,6.03
2022-11-06T17:16:56.531Z,7.30
2022-11-06T17:18:59.233Z,8.17
2022-11-06T17:21:04.426Z,6.57
2022-11-06T17:23:15.757Z,6.83
2022-11-06T17:25:19.326Z,7.53
2022-11-06T17:27:22.333Z,7.10
2022-11-06T17:29:25.053Z,7.40
2022-11-06T17:31:28.312Z,6.87
2022-11-06T17:33:31.395Z,7.03
2022-11-06T17:35:34.484Z,7.90
2022-11-06T17:37:37.413Z,7.83
2022-11-06T17:39:41.924Z,7.83
2022-11-06T17:41:44.678Z,8.07
2022-11-06T17:43:47.799Z,7.60
2022-11-06T17:45:50.877Z,8.27
2022-11-06T17:47:53.541Z,8.20
2022-11-06T17:49:56.273Z,8.27
2022-11-06T17:51:59.945Z,9.07
2022-11-06T17:54:03.193Z,7.93
2022-11-06T17:56:08.606Z,8.40
2022-11-06T17:58:11.609Z,9.87
2022-11-06T18:00:14.840Z,9.77
2022-11-06T18:02:30.051Z,9.90
2022-11-06T18:04:40.919Z,11.80
2022-11-06T18:06:45.478Z,12.00
2022-11-06T18:08:48.295Z,11.33
2022-11-06T18:10:55.858Z,13.47
2022-11-06T18:12:59.918Z,12.33
2022-11-06T18:15:02.801Z,13.17
2022-11-06T18:17:05.562Z,15.33
2022-11-06T18:19:09.830Z,13.87
2022-11-06T18:21:12.668Z,15.83
2022-11-06T18:23:15.651Z,15.10
2022-11-06T18:25:18.428Z,15.30
2022-11-06T18:27:21.157Z,15.83
2022-11-06T18:29:25.401Z,15.63
2022-11-06T18:31:28.135Z,16.33
2022-11-06T18:33:31.302Z,16.03
2022-11-06T18:35:34.223Z,17.63
2022-11-06T18:37:37.095Z,16.70
2022-11-06T18:39:40.476Z,16.17
2022-11-06T18:41:43.389Z,16.70
2022-11-06T18:43:46.688Z,15.60
2022-11-06T18:45:51.201Z,16.00
2022-11-06T18:47:53.890Z,14.87
2022-11-06T18:49:56.891Z,13.33
2022-11-06T18:52:00.002Z,14.27
2022-11-06T18:54:05.627Z,12.43
2022-11-06T18:56:10.691Z,12.37
2022-11-06T18:58:13.877Z,12.47
2022-11-06T19:00:17.787Z,12.50
2022-11-06T19:02:22.265Z,12.50
2022-11-06T19:04:27.620Z,12.67
2022-11-06T19:06:33.302Z,12.23
2022-11-06T19:08:37.360Z,11.77
2022-11-06T19:10:40.484Z,13.03
2022-11-06T19:12:43.333Z,12.13
2022-11-06T19:14:46.137Z,11.80
2022-11-06T19:16:49.087Z,11.00
2022-11-06T19:21:05.287Z,11.83
2022-11-06T19:23:08.426Z,11.63
2022-11-06T19:25:12.523Z,10.67
2022-11-06T19:27:15.876Z,11.63
2022-11-06T19:29:19.282Z,11.40
2022-11-06T19:31:28.468Z,11.27
2022-11-06T19:33:31.587Z,10.93
2022-11-06T19:35:36.451Z,11.50
2022-11-06T19:37:39.385Z,10.80
2022-11-06T19:39:42.428Z,11.10
2022-11-06T19:41:45.444Z,10.53
2022-11-06T19:43:48.406Z,10.80
2022-11-06T19:45:53.039Z,11.00
2022-11-06T19:47:56.137Z,10.77
2022-11-06T19:50:00.087Z,10.47
2022-11-06T19:52:41.673Z,10.23
2022-11-06T19:54:28.255Z,10.27
2022-11-06T19:56:31.382Z,10.20
2022-11-06T19:58:34.179Z,10.90
2022-11-06T20:00:38.261Z,12.63
2022-11-06T20:02:42.692Z,10.03
2022-11-06T20:04:46.274Z,9.87
2022-11-06T20:06:51.314Z,10.50
2022-11-06T20:08:56.226Z,10.80
2022-11-06T20:11:03.313Z,10.47
2022-11-06T20:13:06.081Z,11.23
2022-11-06T20:15:09.909Z,10.47
2022-11-06T20:17:14.973Z,10.03
2022-11-06T20:19:18.263Z,10.93
2022-11-06T20:21:23.362Z,10.23
2022-11-06T20:23:26.146Z,10.47
2022-11-06T20:25:31.885Z,10.13
2022-11-06T20:27:34.733Z,9.30
2022-11-06T20:29:37.721Z,10.53
2022-11-06T20:31:40.452Z,9.90
2022-11-06T20:33:43.345Z,9.70
2022-11-06T20:35:47.344Z,9.93
2022-11-06T20:37:52.712Z,9.60
2022-11-06T20:39:57.963Z,10.30
2022-11-06T20:42:02.063Z,9.60
2022-11-06T20:44:06.944Z,9.90
2022-11-06T20:46:11.214Z,10.30
2022-11-06T20:48:14.718Z,9.13
2022-11-06T20:50:17.987Z,9.63
2022-11-06T20:52:23.916Z,9.53
2022-11-06T20:54:27.575Z,9.77
2022-11-06T20:56:32.584Z,10.20
2022-11-06T20:58:37.943Z,9.30
2022-11-06T21:00:41.189Z,10.17
2022-11-06T21:02:44.458Z,11.40
2022-11-06T21:04:47.873Z,9.83
2022-11-06T21:06:50.908Z,9.10
2022-11-06T21:08:54.553Z,9.13
2022-11-06T21:11:04.798Z,8.33
2022-11-06T21:13:09.262Z,8.80
2022-11-06T21:15:13.430Z,8.40
2022-11-06T21:17:16.294Z,8.73
2022-11-06T21:19:19.110Z,8.10
2022-11-06T21:21:24.610Z,8.37
2022-11-06T21:23:27.800Z,7.90
2022-11-06T21:25:34.843Z,7.77
2022-11-06T21:27:38.684Z,7.53
2022-11-06T21:29:42.422Z,7.07
2022-11-06T21:31:49.151Z,7.03
2022-11-06T21:33:56.255Z,6.50
2022-11-06T21:36:06.645Z,6.67
2022-11-06T21:38:10.042Z,5.90
2022-11-06T21:40:17.188Z,6.67
2022-11-06T21:42:20.303Z,7.00
2022-11-06T21:44:22.998Z,5.93
2022-11-06T21:46:26.020Z,6.03
2022-11-06T21:48:45.092Z,6.70
2022-11-06T21:50:49.183Z,5.20
2022-11-06T21:53:09.492Z,6.70
2022-11-06T21:55:30.484Z,6.13
2022-11-06T21:57:33.410Z,5.10
2022-11-06T21:59:41.443Z,5.40
2022-11-06T22:01:45.503Z,5.30
2022-11-06T22:03:50.514Z,5.20
2022-11-06T22:05:53.218Z,4.80
2022-11-06T22:07:55.942Z,5.87
2022-11-06T22:09:58.618Z,5.83
2022-11-06T22:12:01.299Z,5.07
2022-11-06T22:14:06.628Z,4.83
2022-11-06T22:16:10.860Z,6.73
2022-11-06T22:18:13.825Z,5.37
2022-11-06T22:20:18.245Z,6.37
2022-11-06T22:22:20.920Z,4.43
2022-11-06T22:24:23.640Z,8.33
2022-11-06T22:26:28.938Z,5.27
2022-11-06T22:28:31.706Z,5.17
2022-11-06T22:30:34.375Z,5.90
2022-11-06T22:32:37.092Z,5.07
2022-11-06T22:34:39.841Z,5.67
2022-11-06T22:36:43.986Z,7.33
2022-11-06T22:38:47.701Z,5.77
2022-11-06T22:40:53.844Z,5.70
2022-11-06T22:42:56.505Z,4.57
2022-11-06T22:44:59.790Z,5.13
2022-11-06T22:47:03.314Z,5.50
2022-11-06T22:49:06.358Z,5.57
2022-11-06T22:51:11.106Z,5.13
2022-11-06T22:53:15.548Z,5.40
2022-11-06T22:55:18.782Z,5.73
2022-11-06T22:57:21.524Z,5.10
2022-11-06T22:59:24.432Z,5.23
2022-11-06T23:01:29.329Z,5.50
2022-11-06T23:03:32.470Z,5.90
2022-11-06T23:05:39.751Z,6.20
2022-11-06T23:07:42.773Z,5.30
2022-11-06T23:09:46.871Z,4.87
2022-11-06T23:11:49.664Z,4.70
2022-11-06T23:13:52.828Z,7.23
2022-11-06T23:16:03.487Z,4.70
2022-11-06T23:18:06.628Z,4.90
2022-11-06T23:20:10.294Z,5.30
2022-11-06T23:22:30.594Z,5.03
2022-11-06T23:24:33.601Z,5.30
2022-11-06T23:26:38.417Z,4.23
2022-11-06T23:28:41.583Z,5.83
2022-11-06T23:30:44.475Z,5.70
2022-11-06T23:32:48.203Z,5.87
2022-11-06T23:34:52.417Z,5.00
2022-11-06T23:36:55.348Z,4.93
2022-11-06T23:38:58.226Z,5.33
2022-11-06T23:41:26.528Z,6.97
2022-11-06T23:43:30.755Z,4.70
2022-11-06T23:45:51.334Z,7.97
2022-11-06T23:47:54.178Z,5.50
2022-11-06T23:49:57.177Z,5.53
2022-11-06T23:52:00.028Z,4.67
2022-11-06T23:54:02.974Z,5.67
2022-11-06T23:56:06.518Z,5.57
2022-11-06T23:58:09.652Z,5.27
